sensor_id;sensor_type;location;lat;lon;timestamp;P1;durP1;ratioP1;P2;durP2;ratioP2
67902;SDS011;54708;43.612;1.568;2022-12-29T00:01:20;25.63;;;15.98;;
67902;SDS011;54708;43.612;1.568;2022-12-29T00:03:46;24.42;;;15.93;;
67902;SDS011;54708;43.612;1.568;2022-12-29T00:06:11;30.60;;;18.30;;
67902;SDS011;54708;43.612;1.568;2022-12-29T00:08:37;26.00;;;17.05;;
67902;SDS011;54708;43.612;1.568;2022-12-29T00:11:08;25.88;;;16.45;;
67902;SDS011;54708;43.612;1.568;2022-12-29T00:13:41;27.55;;;17.60;;
67902;SDS011;54708;43.612;1.568;2022-12-29T00:16:25;28.85;;;15.90;;
67902;SDS011;54708;43.612;1.568;2022-12-29T00:18:51;27.02;;;15.82;;
67902;SDS011;54708;43.612;1.568;2022-12-29T00:21:17;25.73;;;15.57;;
67902;SDS011;54708;43.612;1.568;2022-12-29T00:24:02;24.92;;;15.75;;
67902;SDS011;54708;43.612;1.568;2022-12-29T00:26:48;30.60;;;16.65;;
67902;SDS011;54708;43.612;1.568;2022-12-29T00:29:37;29.08;;;16.05;;
67902;SDS011;54708;43.612;1.568;2022-12-29T00:32:21;28.73;;;15.18;;
67902;SDS011;54708;43.612;1.568;2022-12-29T00:35:06;21.85;;;16.75;;
67902;SDS011;54708;43.612;1.568;2022-12-29T00:37:35;25.52;;;15.70;;
67902;SDS011;54708;43.612;1.568;2022-12-29T00:40:20;23.02;;;14.70;;
67902;SDS011;54708;43.612;1.568;2022-12-29T00:43:04;21.40;;;14.60;;
67902;SDS011;54708;43.612;1.568;2022-12-29T00:45:48;31.25;;;17.08;;
67902;SDS011;54708;43.612;1.568;2022-12-29T00:48:14;26.48;;;16.30;;
67902;SDS011;54708;43.612;1.568;2022-12-29T00:50:39;24.63;;;15.27;;
67902;SDS011;54708;43.612;1.568;2022-12-29T00:53:04;25.55;;;15.50;;
67902;SDS011;54708;43.612;1.568;2022-12-29T00:55:30;24.77;;;14.55;;
67902;SDS011;54708;43.612;1.568;2022-12-29T00:57:55;25.65;;;14.52;;
67902;SDS011;54708;43.612;1.568;2022-12-29T01:00:20;23.38;;;14.05;;
67902;SDS011;54708;43.612;1.568;2022-12-29T01:02:46;21.40;;;13.77;;
67902;SDS011;54708;43.612;1.568;2022-12-29T01:05:11;27.38;;;15.68;;
67902;SDS011;54708;43.612;1.568;2022-12-29T01:07:36;27.40;;;14.45;;
67902;SDS011;54708;43.612;1.568;2022-12-29T01:10:02;29.38;;;15.27;;
67902;SDS011;54708;43.612;1.568;2022-12-29T01:12:36;24.92;;;15.43;;
67902;SDS011;54708;43.612;1.568;2022-12-29T01:15:10;29.45;;;13.90;;
67902;SDS011;54708;43.612;1.568;2022-12-29T01:17:37;25.98;;;13.63;;
67902;SDS011;54708;43.612;1.568;2022-12-29T01:20:03;21.38;;;14.63;;
67902;SDS011;54708;43.612;1.568;2022-12-29T01:22:29;22.38;;;13.40;;
67902;SDS011;54708;43.612;1.568;2022-12-29T01:24:54;24.95;;;14.73;;
67902;SDS011;54708;43.612;1.568;2022-12-29T01:27:19;22.15;;;13.27;;
67902;SDS011;54708;43.612;1.568;2022-12-29T01:29:45;24.63;;;14.32;;
67902;SDS011;54708;43.612;1.568;2022-12-29T01:32:10;23.00;;;13.25;;
67902;SDS011;54708;43.612;1.568;2022-12-29T01:34:36;22.05;;;13.98;;
67902;SDS011;54708;43.612;1.568;2022-12-29T01:37:01;26.63;;;14.70;;
67902;SDS011;54708;43.612;1.568;2022-12-29T01:39:26;22.45;;;12.73;;
67902;SDS011;54708;43.612;1.568;2022-12-29T01:41:52;23.75;;;13.68;;
67902;SDS011;54708;43.612;1.568;2022-12-29T01:47:10;25.77;;;14.43;;
67902;SDS011;54708;43.612;1.568;2022-12-29T01:49:36;22.15;;;13.70;;
67902;SDS011;54708;43.612;1.568;2022-12-29T01:52:05;23.08;;;12.98;;
67902;SDS011;54708;43.612;1.568;2022-12-29T01:59:36;21.58;;;12.65;;
67902;SDS011;54708;43.612;1.568;2022-12-29T02:02:04;27.40;;;15.23;;
67902;SDS011;54708;43.612;1.568;2022-12-29T02:04:29;20.05;;;12.93;;
67902;SDS011;54708;43.612;1.568;2022-12-29T02:06:59;25.63;;;14.55;;
67902;SDS011;54708;43.612;1.568;2022-12-29T02:11:56;23.27;;;13.43;;
67902;SDS011;54708;43.612;1.568;2022-12-29T02:14:21;22.25;;;12.57;;
67902;SDS011;54708;43.612;1.568;2022-12-29T02:26:05;19.98;;;12.70;;
67902;SDS011;54708;43.612;1.568;2022-12-29T02:28:41;22.55;;;12.30;;
67902;SDS011;54708;43.612;1.568;2022-12-29T02:31:28;21.58;;;13.10;;
67902;SDS011;54708;43.612;1.568;2022-12-29T02:36:48;22.50;;;13.27;;
67902;SDS011;54708;43.612;1.568;2022-12-29T02:45:03;24.33;;;14.75;;
67902;SDS011;54708;43.612;1.568;2022-12-29T02:47:49;24.02;;;12.50;;
67902;SDS011;54708;43.612;1.568;2022-12-29T02:50:22;24.23;;;14.27;;
67902;SDS011;54708;43.612;1.568;2022-12-29T02:52:52;23.00;;;14.23;;
67902;SDS011;54708;43.612;1.568;2022-12-29T02:55:22;28.92;;;14.25;;
67902;SDS011;54708;43.612;1.568;2022-12-29T02:57:47;28.48;;;14.13;;
67902;SDS011;54708;43.612;1.568;2022-12-29T03:00:16;24.05;;;13.88;;
67902;SDS011;54708;43.612;1.568;2022-12-29T03:05:27;26.27;;;14.43;;
67902;SDS011;54708;43.612;1.568;2022-12-29T03:11:09;27.75;;;13.88;;
67902;SDS011;54708;43.612;1.568;2022-12-29T03:13:59;22.85;;;13.88;;
67902;SDS011;54708;43.612;1.568;2022-12-29T03:16:50;32.78;;;16.00;;
67902;SDS011;54708;43.612;1.568;2022-12-29T03:19:20;31.58;;;15.10;;
67902;SDS011;54708;43.612;1.568;2022-12-29T03:21:50;27.95;;;15.55;;
67902;SDS011;54708;43.612;1.568;2022-12-29T03:24:50;24.15;;;14.90;;
67902;SDS011;54708;43.612;1.568;2022-12-29T03:27:19;20.45;;;13.55;;
67902;SDS011;54708;43.612;1.568;2022-12-29T03:29:54;22.83;;;13.23;;
67902;SDS011;54708;43.612;1.568;2022-12-29T03:32:22;21.65;;;12.80;;
67902;SDS011;54708;43.612;1.568;2022-12-29T03:34:49;23.95;;;13.13;;
67902;SDS011;54708;43.612;1.568;2022-12-29T03:37:15;28.50;;;13.85;;
67902;SDS011;54708;43.612;1.568;2022-12-29T03:39:43;23.55;;;12.77;;
67902;SDS011;54708;43.612;1.568;2022-12-29T03:42:10;21.10;;;13.52;;
67902;SDS011;54708;43.612;1.568;2022-12-29T03:44:39;25.02;;;12.20;;
67902;SDS011;54708;43.612;1.568;2022-12-29T03:47:06;24.42;;;14.25;;
67902;SDS011;54708;43.612;1.568;2022-12-29T03:49:32;22.20;;;12.60;;
67902;SDS011;54708;43.612;1.568;2022-12-29T03:51:57;27.15;;;13.05;;
67902;SDS011;54708;43.612;1.568;2022-12-29T03:54:23;30.23;;;12.75;;
67902;SDS011;54708;43.612;1.568;2022-12-29T03:56:48;24.08;;;11.90;;
67902;SDS011;54708;43.612;1.568;2022-12-29T03:59:14;26.98;;;13.10;;
67902;SDS011;54708;43.612;1.568;2022-12-29T04:01:39;24.27;;;12.88;;
67902;SDS011;54708;43.612;1.568;2022-12-29T04:04:05;17.52;;;11.10;;
67902;SDS011;54708;43.612;1.568;2022-12-29T04:06:30;20.30;;;11.77;;
67902;SDS011;54708;43.612;1.568;2022-12-29T04:08:55;22.73;;;12.15;;
67902;SDS011;54708;43.612;1.568;2022-12-29T04:11:21;27.55;;;11.68;;
67902;SDS011;54708;43.612;1.568;2022-12-29T04:13:48;21.05;;;12.27;;
67902;SDS011;54708;43.612;1.568;2022-12-29T04:16:13;23.80;;;11.57;;
67902;SDS011;54708;43.612;1.568;2022-12-29T04:18:39;20.52;;;10.57;;
67902;SDS011;54708;43.612;1.568;2022-12-29T04:21:04;20.60;;;11.90;;
67902;SDS011;54708;43.612;1.568;2022-12-29T04:23:31;22.80;;;12.10;;
67902;SDS011;54708;43.612;1.568;2022-12-29T04:25:58;21.15;;;11.27;;
67902;SDS011;54708;43.612;1.568;2022-12-29T04:28:23;23.15;;;11.30;;
67902;SDS011;54708;43.612;1.568;2022-12-29T04:30:49;21.20;;;12.75;;
67902;SDS011;54708;43.612;1.568;2022-12-29T04:33:15;18.70;;;10.95;;
67902;SDS011;54708;43.612;1.568;2022-12-29T04:35:41;21.88;;;10.43;;
67902;SDS011;54708;43.612;1.568;2022-12-29T04:38:07;24.63;;;12.07;;
67902;SDS011;54708;43.612;1.568;2022-12-29T04:40:32;23.67;;;10.65;;
67902;SDS011;54708;43.612;1.568;2022-12-29T04:42:57;18.73;;;11.52;;
67902;SDS011;54708;43.612;1.568;2022-12-29T04:45:23;24.45;;;12.48;;
67902;SDS011;54708;43.612;1.568;2022-12-29T04:47:48;20.13;;;11.50;;
67902;SDS011;54708;43.612;1.568;2022-12-29T04:50:13;21.42;;;10.95;;
67902;SDS011;54708;43.612;1.568;2022-12-29T04:52:39;21.85;;;11.10;;
67902;SDS011;54708;43.612;1.568;2022-12-29T04:55:05;21.15;;;12.00;;
67902;SDS011;54708;43.612;1.568;2022-12-29T04:57:30;19.30;;;11.25;;
67902;SDS011;54708;43.612;1.568;2022-12-29T04:59:56;25.02;;;10.35;;
67902;SDS011;54708;43.612;1.568;2022-12-29T05:02:21;17.40;;;10.27;;
67902;SDS011;54708;43.612;1.568;2022-12-29T05:04:47;23.70;;;11.55;;
67902;SDS011;54708;43.612;1.568;2022-12-29T05:07:12;20.95;;;10.80;;
67902;SDS011;54708;43.612;1.568;2022-12-29T05:09:38;24.15;;;10.98;;
67902;SDS011;54708;43.612;1.568;2022-12-29T05:12:03;18.17;;;11.70;;
67902;SDS011;54708;43.612;1.568;2022-12-29T05:14:29;20.20;;;10.40;;
67902;SDS011;54708;43.612;1.568;2022-12-29T05:16:54;20.80;;;10.32;;
67902;SDS011;54708;43.612;1.568;2022-12-29T05:19:20;22.50;;;11.20;;
67902;SDS011;54708;43.612;1.568;2022-12-29T05:21:45;21.67;;;11.20;;
67902;SDS011;54708;43.612;1.568;2022-12-29T05:24:11;20.10;;;10.70;;
67902;SDS011;54708;43.612;1.568;2022-12-29T05:26:36;22.58;;;12.38;;
67902;SDS011;54708;43.612;1.568;2022-12-29T05:29:01;18.90;;;10.98;;
67902;SDS011;54708;43.612;1.568;2022-12-29T05:31:27;17.40;;;10.65;;
67902;SDS011;54708;43.612;1.568;2022-12-29T05:33:53;20.20;;;11.60;;
67902;SDS011;54708;43.612;1.568;2022-12-29T05:36:18;18.27;;;10.20;;
67902;SDS011;54708;43.612;1.568;2022-12-29T05:38:44;20.85;;;11.80;;
67902;SDS011;54708;43.612;1.568;2022-12-29T05:41:09;22.88;;;11.10;;
67902;SDS011;54708;43.612;1.568;2022-12-29T05:43:35;20.67;;;11.43;;
67902;SDS011;54708;43.612;1.568;2022-12-29T05:46:01;30.33;;;12.07;;
67902;SDS011;54708;43.612;1.568;2022-12-29T05:48:26;21.92;;;12.10;;
67902;SDS011;54708;43.612;1.568;2022-12-29T05:50:52;20.15;;;10.57;;
67902;SDS011;54708;43.612;1.568;2022-12-29T05:53:17;18.95;;;11.52;;
67902;SDS011;54708;43.612;1.568;2022-12-29T05:55:43;18.85;;;12.18;;
67902;SDS011;54708;43.612;1.568;2022-12-29T05:58:10;19.10;;;11.15;;
67902;SDS011;54708;43.612;1.568;2022-12-29T06:00:35;19.77;;;11.35;;
67902;SDS011;54708;43.612;1.568;2022-12-29T06:03:00;20.67;;;11.50;;
67902;SDS011;54708;43.612;1.568;2022-12-29T06:05:26;20.10;;;11.68;;
67902;SDS011;54708;43.612;1.568;2022-12-29T06:07:51;20.55;;;11.15;;
67902;SDS011;54708;43.612;1.568;2022-12-29T06:10:16;21.13;;;11.93;;
67902;SDS011;54708;43.612;1.568;2022-12-29T06:12:42;24.15;;;12.18;;
67902;SDS011;54708;43.612;1.568;2022-12-29T06:15:08;19.15;;;10.73;;
67902;SDS011;54708;43.612;1.568;2022-12-29T06:17:33;28.80;;;11.60;;
67902;SDS011;54708;43.612;1.568;2022-12-29T06:19:59;23.70;;;11.68;;
67902;SDS011;54708;43.612;1.568;2022-12-29T06:22:24;19.40;;;10.85;;
67902;SDS011;54708;43.612;1.568;2022-12-29T06:24:50;25.92;;;12.27;;
67902;SDS011;54708;43.612;1.568;2022-12-29T06:27:15;19.95;;;12.75;;
67902;SDS011;54708;43.612;1.568;2022-12-29T06:29:41;23.45;;;11.38;;
67902;SDS011;54708;43.612;1.568;2022-12-29T06:32:07;20.58;;;11.40;;
67902;SDS011;54708;43.612;1.568;2022-12-29T06:34:33;15.20;;;10.93;;
67902;SDS011;54708;43.612;1.568;2022-12-29T06:36:58;22.02;;;11.90;;
67902;SDS011;54708;43.612;1.568;2022-12-29T06:39:24;22.38;;;10.32;;
67902;SDS011;54708;43.612;1.568;2022-12-29T06:41:51;23.80;;;12.32;;
67902;SDS011;54708;43.612;1.568;2022-12-29T06:44:17;25.30;;;11.90;;
67902;SDS011;54708;43.612;1.568;2022-12-29T06:46:43;26.25;;;11.80;;
67902;SDS011;54708;43.612;1.568;2022-12-29T06:49:08;33.67;;;11.60;;
67902;SDS011;54708;43.612;1.568;2022-12-29T06:51:33;26.05;;;11.27;;
67902;SDS011;54708;43.612;1.568;2022-12-29T06:53:59;22.20;;;12.57;;
67902;SDS011;54708;43.612;1.568;2022-12-29T06:56:24;21.25;;;12.65;;
67902;SDS011;54708;43.612;1.568;2022-12-29T06:58:50;23.55;;;11.68;;
67902;SDS011;54708;43.612;1.568;2022-12-29T07:01:15;28.10;;;12.15;;
67902;SDS011;54708;43.612;1.568;2022-12-29T07:03:41;23.88;;;12.20;;
67902;SDS011;54708;43.612;1.568;2022-12-29T07:06:07;27.92;;;10.95;;
67902;SDS011;54708;43.612;1.568;2022-12-29T07:08:33;20.95;;;10.05;;
67902;SDS011;54708;43.612;1.568;2022-12-29T07:10:58;17.95;;;10.55;;
67902;SDS011;54708;43.612;1.568;2022-12-29T07:13:23;17.92;;;9.75;;
67902;SDS011;54708;43.612;1.568;2022-12-29T07:15:49;18.02;;;10.45;;
67902;SDS011;54708;43.612;1.568;2022-12-29T07:18:14;30.05;;;11.52;;
67902;SDS011;54708;43.612;1.568;2022-12-29T07:20:39;23.60;;;11.43;;
67902;SDS011;54708;43.612;1.568;2022-12-29T07:23:05;22.98;;;9.90;;
67902;SDS011;54708;43.612;1.568;2022-12-29T07:25:30;27.55;;;10.98;;
67902;SDS011;54708;43.612;1.568;2022-12-29T07:27:56;13.88;;;9.25;;
67902;SDS011;54708;43.612;1.568;2022-12-29T07:30:21;18.85;;;9.65;;
67902;SDS011;54708;43.612;1.568;2022-12-29T07:32:46;20.23;;;10.77;;
67902;SDS011;54708;43.612;1.568;2022-12-29T07:35:12;22.65;;;9.80;;
67902;SDS011;54708;43.612;1.568;2022-12-29T07:37:37;15.30;;;9.88;;
67902;SDS011;54708;43.612;1.568;2022-12-29T07:40:03;25.48;;;10.98;;
67902;SDS011;54708;43.612;1.568;2022-12-29T07:42:29;15.95;;;9.32;;
67902;SDS011;54708;43.612;1.568;2022-12-29T07:44:55;21.23;;;10.85;;
67902;SDS011;54708;43.612;1.568;2022-12-29T07:47:21;17.65;;;10.32;;
67902;SDS011;54708;43.612;1.568;2022-12-29T07:49:46;18.67;;;9.88;;
67902;SDS011;54708;43.612;1.568;2022-12-29T07:52:12;24.35;;;10.88;;
67902;SDS011;54708;43.612;1.568;2022-12-29T07:54:37;24.63;;;10.95;;
67902;SDS011;54708;43.612;1.568;2022-12-29T07:57:03;20.35;;;9.95;;
67902;SDS011;54708;43.612;1.568;2022-12-29T07:59:29;19.13;;;9.85;;
67902;SDS011;54708;43.612;1.568;2022-12-29T08:01:55;25.02;;;11.18;;
67902;SDS011;54708;43.612;1.568;2022-12-29T08:04:20;20.40;;;9.48;;
67902;SDS011;54708;43.612;1.568;2022-12-29T08:06:46;23.27;;;10.23;;
67902;SDS011;54708;43.612;1.568;2022-12-29T08:09:11;18.58;;;9.57;;
67902;SDS011;54708;43.612;1.568;2022-12-29T08:11:37;23.55;;;10.32;;
67902;SDS011;54708;43.612;1.568;2022-12-29T08:14:02;17.60;;;8.77;;
67902;SDS011;54708;43.612;1.568;2022-12-29T08:16:28;23.10;;;9.15;;
67902;SDS011;54708;43.612;1.568;2022-12-29T08:18:54;18.25;;;8.93;;
67902;SDS011;54708;43.612;1.568;2022-12-29T08:21:19;24.00;;;10.20;;
67902;SDS011;54708;43.612;1.568;2022-12-29T08:23:44;20.98;;;8.98;;
67902;SDS011;54708;43.612;1.568;2022-12-29T08:26:10;19.02;;;9.88;;
67902;SDS011;54708;43.612;1.568;2022-12-29T08:28:36;21.02;;;9.55;;
67902;SDS011;54708;43.612;1.568;2022-12-29T08:31:01;21.95;;;9.52;;
67902;SDS011;54708;43.612;1.568;2022-12-29T08:33:28;21.15;;;9.32;;
67902;SDS011;54708;43.612;1.568;2022-12-29T08:35:58;19.08;;;8.88;;
67902;SDS011;54708;43.612;1.568;2022-12-29T08:38:28;17.80;;;8.85;;
67902;SDS011;54708;43.612;1.568;2022-12-29T08:40:54;16.42;;;7.95;;
67902;SDS011;54708;43.612;1.568;2022-12-29T08:43:19;18.67;;;8.18;;
67902;SDS011;54708;43.612;1.568;2022-12-29T08:45:44;16.55;;;7.97;;
67902;SDS011;54708;43.612;1.568;2022-12-29T08:48:10;16.27;;;8.73;;
67902;SDS011;54708;43.612;1.568;2022-12-29T08:50:35;18.50;;;8.95;;
67902;SDS011;54708;43.612;1.568;2022-12-29T08:53:00;19.40;;;8.80;;
67902;SDS011;54708;43.612;1.568;2022-12-29T08:55:26;15.20;;;8.07;;
67902;SDS011;54708;43.612;1.568;2022-12-29T08:57:51;19.35;;;7.95;;
67902;SDS011;54708;43.612;1.568;2022-12-29T09:00:17;14.55;;;8.77;;
67902;SDS011;54708;43.612;1.568;2022-12-29T09:02:43;19.42;;;8.38;;
67902;SDS011;54708;43.612;1.568;2022-12-29T09:05:08;15.90;;;7.97;;
67902;SDS011;54708;43.612;1.568;2022-12-29T09:07:34;16.50;;;8.10;;
67902;SDS011;54708;43.612;1.568;2022-12-29T09:10:00;15.05;;;9.07;;
67902;SDS011;54708;43.612;1.568;2022-12-29T09:12:25;19.42;;;9.48;;
67902;SDS011;54708;43.612;1.568;2022-12-29T09:14:51;15.23;;;7.80;;
67902;SDS011;54708;43.612;1.568;2022-12-29T09:17:16;20.55;;;9.50;;
67902;SDS011;54708;43.612;1.568;2022-12-29T09:20:00;15.13;;;8.10;;
67902;SDS011;54708;43.612;1.568;2022-12-29T09:22:25;17.30;;;9.27;;
67902;SDS011;54708;43.612;1.568;2022-12-29T09:24:50;16.33;;;8.82;;
67902;SDS011;54708;43.612;1.568;2022-12-29T09:27:16;16.50;;;8.30;;
67902;SDS011;54708;43.612;1.568;2022-12-29T09:29:41;17.92;;;8.13;;
67902;SDS011;54708;43.612;1.568;2022-12-29T09:32:06;20.40;;;8.45;;
67902;SDS011;54708;43.612;1.568;2022-12-29T09:34:32;14.48;;;7.57;;
67902;SDS011;54708;43.612;1.568;2022-12-29T09:36:58;18.77;;;9.38;;
67902;SDS011;54708;43.612;1.568;2022-12-29T09:39:23;13.25;;;7.65;;
67902;SDS011;54708;43.612;1.568;2022-12-29T09:47:21;13.52;;;6.88;;
67902;SDS011;54708;43.612;1.568;2022-12-29T09:52:36;14.23;;;7.82;;
67902;SDS011;54708;43.612;1.568;2022-12-29T09:55:13;16.80;;;8.38;;
67902;SDS011;54708;43.612;1.568;2022-12-29T09:57:59;15.23;;;8.95;;
67902;SDS011;54708;43.612;1.568;2022-12-29T10:00:32;15.23;;;8.48;;
67902;SDS011;54708;43.612;1.568;2022-12-29T10:03:18;13.88;;;6.57;;
67902;SDS011;54708;43.612;1.568;2022-12-29T10:05:56;10.95;;;6.93;;
67902;SDS011;54708;43.612;1.568;2022-12-29T10:11:52;13.27;;;6.95;;
67902;SDS011;54708;43.612;1.568;2022-12-29T10:14:47;15.13;;;6.65;;
67902;SDS011;54708;43.612;1.568;2022-12-29T10:17:37;15.65;;;7.13;;
67902;SDS011;54708;43.612;1.568;2022-12-29T10:22:43;22.50;;;8.52;;
67902;SDS011;54708;43.612;1.568;2022-12-29T10:25:30;18.50;;;6.88;;
67902;SDS011;54708;43.612;1.568;2022-12-29T10:27:58;12.82;;;6.93;;
67902;SDS011;54708;43.612;1.568;2022-12-29T10:30:24;17.35;;;6.57;;
67902;SDS011;54708;43.612;1.568;2022-12-29T10:32:51;14.45;;;6.47;;
67902;SDS011;54708;43.612;1.568;2022-12-29T10:35:24;12.75;;;6.38;;
67902;SDS011;54708;43.612;1.568;2022-12-29T10:37:56;14.45;;;6.40;;
67902;SDS011;54708;43.612;1.568;2022-12-29T10:40:26;14.27;;;6.45;;
67902;SDS011;54708;43.612;1.568;2022-12-29T10:42:56;8.73;;;6.25;;
67902;SDS011;54708;43.612;1.568;2022-12-29T10:45:23;14.55;;;6.60;;
67902;SDS011;54708;43.612;1.568;2022-12-29T10:50:43;11.90;;;6.53;;
67902;SDS011;54708;43.612;1.568;2022-12-29T10:53:08;9.38;;;6.03;;
67902;SDS011;54708;43.612;1.568;2022-12-29T10:55:41;10.20;;;6.35;;
67902;SDS011;54708;43.612;1.568;2022-12-29T10:58:07;19.65;;;7.35;;
67902;SDS011;54708;43.612;1.568;2022-12-29T11:00:36;10.38;;;5.95;;
67902;SDS011;54708;43.612;1.568;2022-12-29T11:08:35;13.88;;;7.32;;
67902;SDS011;54708;43.612;1.568;2022-12-29T11:11:04;10.40;;;6.00;;
67902;SDS011;54708;43.612;1.568;2022-12-29T11:13:34;15.07;;;6.10;;
67902;SDS011;54708;43.612;1.568;2022-12-29T11:16:01;19.20;;;5.82;;
67902;SDS011;54708;43.612;1.568;2022-12-29T11:18:37;16.25;;;6.63;;
67902;SDS011;54708;43.612;1.568;2022-12-29T11:24:05;16.88;;;7.80;;
67902;SDS011;54708;43.612;1.568;2022-12-29T11:26:40;13.75;;;6.40;;
67902;SDS011;54708;43.612;1.568;2022-12-29T11:29:25;13.30;;;5.95;;
67902;SDS011;54708;43.612;1.568;2022-12-29T11:31:53;15.20;;;6.38;;
67902;SDS011;54708;43.612;1.568;2022-12-29T11:37:06;12.23;;;6.15;;
67902;SDS011;54708;43.612;1.568;2022-12-29T11:39:37;14.02;;;5.55;;
67902;SDS011;54708;43.612;1.568;2022-12-29T11:42:06;16.98;;;7.07;;
67902;SDS011;54708;43.612;1.568;2022-12-29T11:47:07;13.23;;;5.50;;
67902;SDS011;54708;43.612;1.568;2022-12-29T11:49:34;17.92;;;6.82;;
67902;SDS011;54708;43.612;1.568;2022-12-29T11:52:00;13.40;;;5.38;;
67902;SDS011;54708;43.612;1.568;2022-12-29T11:54:27;13.23;;;5.75;;
67902;SDS011;54708;43.612;1.568;2022-12-29T11:56:56;12.65;;;6.28;;
67902;SDS011;54708;43.612;1.568;2022-12-29T12:01:59;12.50;;;5.10;;
67902;SDS011;54708;43.612;1.568;2022-12-29T12:04:30;8.27;;;5.47;;
67902;SDS011;54708;43.612;1.568;2022-12-29T12:09:45;8.43;;;5.15;;
67902;SDS011;54708;43.612;1.568;2022-12-29T12:12:24;20.70;;;6.70;;
67902;SDS011;54708;43.612;1.568;2022-12-29T12:14:55;9.32;;;4.60;;
67902;SDS011;54708;43.612;1.568;2022-12-29T12:20:05;8.75;;;4.35;;
67902;SDS011;54708;43.612;1.568;2022-12-29T12:22:48;17.80;;;5.43;;
67902;SDS011;54708;43.612;1.568;2022-12-29T12:25:21;13.30;;;5.30;;
67902;SDS011;54708;43.612;1.568;2022-12-29T12:30:27;14.23;;;6.53;;
67902;SDS011;54708;43.612;1.568;2022-12-29T12:32:59;10.45;;;5.47;;
67902;SDS011;54708;43.612;1.568;2022-12-29T12:35:32;14.15;;;5.78;;
67902;SDS011;54708;43.612;1.568;2022-12-29T13:20:28;13.13;;;4.97;;
67902;SDS011;54708;43.612;1.568;2022-12-29T13:31:38;8.15;;;4.40;;
67902;SDS011;54708;43.612;1.568;2022-12-29T13:36:42;9.60;;;5.45;;
67902;SDS011;54708;43.612;1.568;2022-12-29T13:41:51;11.13;;;4.93;;
67902;SDS011;54708;43.612;1.568;2022-12-29T13:44:22;11.82;;;6.47;;
67902;SDS011;54708;43.612;1.568;2022-12-29T13:50:05;11.45;;;5.85;;
67902;SDS011;54708;43.612;1.568;2022-12-29T13:52:37;12.57;;;4.90;;
67902;SDS011;54708;43.612;1.568;2022-12-29T13:57:47;12.45;;;5.60;;
67902;SDS011;54708;43.612;1.568;2022-12-29T14:00:18;13.77;;;6.03;;
67902;SDS011;54708;43.612;1.568;2022-12-29T14:05:31;16.08;;;6.90;;
67902;SDS011;54708;43.612;1.568;2022-12-29T14:08:00;12.20;;;5.93;;
67902;SDS011;54708;43.612;1.568;2022-12-29T14:10:28;14.10;;;7.30;;
67902;SDS011;54708;43.612;1.568;2022-12-29T14:13:22;9.75;;;6.32;;
67902;SDS011;54708;43.612;1.568;2022-12-29T14:15:50;10.40;;;5.65;;
67902;SDS011;54708;43.612;1.568;2022-12-29T14:18:18;17.60;;;5.45;;
67902;SDS011;54708;43.612;1.568;2022-12-29T14:21:10;14.95;;;6.43;;
67902;SDS011;54708;43.612;1.568;2022-12-29T14:23:41;19.27;;;6.60;;
67902;SDS011;54708;43.612;1.568;2022-12-29T14:26:32;13.93;;;6.78;;
67902;SDS011;54708;43.612;1.568;2022-12-29T14:31:50;12.32;;;6.93;;
67902;SDS011;54708;43.612;1.568;2022-12-29T14:37:00;13.52;;;6.53;;
67902;SDS011;54708;43.612;1.568;2022-12-29T14:39:39;12.40;;;6.15;;
67902;SDS011;54708;43.612;1.568;2022-12-29T14:42:11;15.32;;;6.25;;
67902;SDS011;54708;43.612;1.568;2022-12-29T14:44:51;12.63;;;5.88;;
67902;SDS011;54708;43.612;1.568;2022-12-29T14:47:22;15.68;;;6.38;;
67902;SDS011;54708;43.612;1.568;2022-12-29T14:49:52;16.25;;;6.65;;
67902;SDS011;54708;43.612;1.568;2022-12-29T14:52:20;12.02;;;6.07;;
67902;SDS011;54708;43.612;1.568;2022-12-29T14:57:31;14.98;;;6.88;;
67902;SDS011;54708;43.612;1.568;2022-12-29T15:00:07;16.27;;;6.53;;
67902;SDS011;54708;43.612;1.568;2022-12-29T15:02:39;14.60;;;6.35;;
67902;SDS011;54708;43.612;1.568;2022-12-29T15:05:10;7.45;;;5.70;;
67902;SDS011;54708;43.612;1.568;2022-12-29T15:07:48;9.85;;;6.53;;
67902;SDS011;54708;43.612;1.568;2022-12-29T15:10:14;19.83;;;7.68;;
67902;SDS011;54708;43.612;1.568;2022-12-29T15:12:41;13.80;;;6.55;;
67902;SDS011;54708;43.612;1.568;2022-12-29T15:15:22;9.95;;;6.45;;
67902;SDS011;54708;43.612;1.568;2022-12-29T15:17:49;19.05;;;7.65;;
67902;SDS011;54708;43.612;1.568;2022-12-29T15:20:20;11.80;;;6.38;;
67902;SDS011;54708;43.612;1.568;2022-12-29T15:22:56;14.65;;;7.25;;
67902;SDS011;54708;43.612;1.568;2022-12-29T15:25:22;14.15;;;7.30;;
67902;SDS011;54708;43.612;1.568;2022-12-29T15:27:52;13.82;;;7.57;;
67902;SDS011;54708;43.612;1.568;2022-12-29T15:30:20;13.43;;;6.97;;
67902;SDS011;54708;43.612;1.568;2022-12-29T15:32:46;14.82;;;7.03;;
67902;SDS011;54708;43.612;1.568;2022-12-29T15:37:48;15.20;;;7.57;;
67902;SDS011;54708;43.612;1.568;2022-12-29T15:40:24;15.02;;;8.32;;
67902;SDS011;54708;43.612;1.568;2022-12-29T15:45:44;14.07;;;7.38;;
67902;SDS011;54708;43.612;1.568;2022-12-29T15:48:13;17.35;;;7.05;;
67902;SDS011;54708;43.612;1.568;2022-12-29T15:50:44;17.90;;;8.75;;
67902;SDS011;54708;43.612;1.568;2022-12-29T15:53:11;16.10;;;8.18;;
67902;SDS011;54708;43.612;1.568;2022-12-29T15:55:38;14.00;;;8.27;;
67902;SDS011;54708;43.612;1.568;2022-12-29T15:58:15;16.77;;;8.57;;
67902;SDS011;54708;43.612;1.568;2022-12-29T16:00:47;16.75;;;8.27;;
67902;SDS011;54708;43.612;1.568;2022-12-29T16:03:18;20.23;;;8.48;;
67902;SDS011;54708;43.612;1.568;2022-12-29T16:05:49;34.83;;;13.90;;
67902;SDS011;54708;43.612;1.568;2022-12-29T16:10:57;22.73;;;11.43;;
67902;SDS011;54708;43.612;1.568;2022-12-29T16:13:34;24.88;;;9.63;;
67902;SDS011;54708;43.612;1.568;2022-12-29T16:16:02;24.73;;;11.18;;
67902;SDS011;54708;43.612;1.568;2022-12-29T16:18:34;17.23;;;10.43;;
67902;SDS011;54708;43.612;1.568;2022-12-29T16:21:01;21.13;;;9.07;;
67902;SDS011;54708;43.612;1.568;2022-12-29T16:23:28;21.25;;;9.70;;
67902;SDS011;54708;43.612;1.568;2022-12-29T16:25:54;18.40;;;8.90;;
67902;SDS011;54708;43.612;1.568;2022-12-29T16:28:23;18.00;;;9.75;;
67902;SDS011;54708;43.612;1.568;2022-12-29T16:30:58;23.23;;;12.77;;
67902;SDS011;54708;43.612;1.568;2022-12-29T16:33:46;35.70;;;17.77;;
67902;SDS011;54708;43.612;1.568;2022-12-29T16:36:27;29.52;;;15.18;;
67902;SDS011;54708;43.612;1.568;2022-12-29T16:41:53;25.45;;;11.80;;
67902;SDS011;54708;43.612;1.568;2022-12-29T16:44:20;22.35;;;11.60;;
67902;SDS011;54708;43.612;1.568;2022-12-29T16:46:58;20.65;;;11.02;;
67902;SDS011;54708;43.612;1.568;2022-12-29T16:49:27;22.50;;;11.68;;
67902;SDS011;54708;43.612;1.568;2022-12-29T16:51:52;20.92;;;11.02;;
67902;SDS011;54708;43.612;1.568;2022-12-29T16:54:22;27.27;;;12.10;;
67902;SDS011;54708;43.612;1.568;2022-12-29T16:56:57;22.27;;;11.60;;
67902;SDS011;54708;43.612;1.568;2022-12-29T16:59:27;21.73;;;12.63;;
67902;SDS011;54708;43.612;1.568;2022-12-29T17:02:01;23.58;;;13.30;;
67902;SDS011;54708;43.612;1.568;2022-12-29T17:04:31;23.67;;;13.07;;
67902;SDS011;54708;43.612;1.568;2022-12-29T17:06:56;20.63;;;11.77;;
67902;SDS011;54708;43.612;1.568;2022-12-29T17:09:23;26.30;;;12.35;;
67902;SDS011;54708;43.612;1.568;2022-12-29T17:11:50;19.17;;;10.27;;
67902;SDS011;54708;43.612;1.568;2022-12-29T17:16:51;22.95;;;13.23;;
67902;SDS011;54708;43.612;1.568;2022-12-29T17:19:17;59.78;;;34.40;;
67902;SDS011;54708;43.612;1.568;2022-12-29T17:21:43;26.60;;;15.57;;